sensor_id;sensor_type;location;lat;lon;timestamp;temperature;humidity
11639;DHT22;5875;35.940;126.892;2023-03-01T00:01:18;9.60;99.90
11639;DHT22;5875;35.940;126.892;2023-03-01T00:03:46;9.60;99.90
11639;DHT22;5875;35.940;126.892;2023-03-01T00:06:13;9.60;99.90
11639;DHT22;5875;35.940;126.892;2023-03-01T00:08:40;9.70;99.90
11639;DHT22;5875;35.940;126.892;2023-03-01T00:11:13;9.70;99.90
11639;DHT22;5875;35.940;126.892;2023-03-01T00:13:41;9.80;99.90
11639;DHT22;5875;35.940;126.892;2023-03-01T00:16:12;9.90;99.90
11639;DHT22;5875;35.940;126.892;2023-03-01T00:18:39;9.90;99.70
11639;DHT22;5875;35.940;126.892;2023-03-01T00:21:07;9.90;98.00
11639;DHT22;5875;35.940;126.892;2023-03-01T00:23:35;9.90;97.00
11639;DHT22;5875;35.940;126.892;2023-03-01T00:26:05;9.90;96.40
11639;DHT22;5875;35.940;126.892;2023-03-01T00:28:33;9.90;95.70
11639;DHT22;5875;35.940;126.892;2023-03-01T00:31:08;9.90;95.70
11639;DHT22;5875;35.940;126.892;2023-03-01T00:33:35;9.90;96.00
11639;DHT22;5875;35.940;126.892;2023-03-01T00:36:03;9.90;95.60
11639;DHT22;5875;35.940;126.892;2023-03-01T00:38:30;10.00;94.70
11639;DHT22;5875;35.940;126.892;2023-03-01T00:41:08;10.00;95.30
11639;DHT22;5875;35.940;126.892;2023-03-01T00:43:36;10.00;95.30
11639;DHT22;5875;35.940;126.892;2023-03-01T00:46:10;10.00;94.80
11639;DHT22;5875;35.940;126.892;2023-03-01T00:48:38;10.10;94.70
11639;DHT22;5875;35.940;126.892;2023-03-01T00:51:10;10.20;95.10
11639;DHT22;5875;35.940;126.892;2023-03-01T00:53:38;10.30;96.10
11639;DHT22;5875;35.940;126.892;2023-03-01T00:56:07;10.40;98.60
11639;DHT22;5875;35.940;126.892;2023-03-01T00:58:35;10.50;99.10
11639;DHT22;5875;35.940;126.892;2023-03-01T01:01:15;10.60;98.80
11639;DHT22;5875;35.940;126.892;2023-03-01T01:03:56;10.60;99.70
11639;DHT22;5875;35.940;126.892;2023-03-01T01:06:38;10.70;98.90
11639;DHT22;5875;35.940;126.892;2023-03-01T01:09:11;10.80;99.90
11639;DHT22;5875;35.940;126.892;2023-03-01T01:11:50;10.90;99.90
11639;DHT22;5875;35.940;126.892;2023-03-01T01:14:18;11.00;98.00
11639;DHT22;5875;35.940;126.892;2023-03-01T01:16:45;11.10;97.10
11639;DHT22;5875;35.940;126.892;2023-03-01T01:19:13;11.10;95.60
11639;DHT22;5875;35.940;126.892;2023-03-01T01:21:41;11.30;94.20
11639;DHT22;5875;35.940;126.892;2023-03-01T01:24:10;11.40;93.50
11639;DHT22;5875;35.940;126.892;2023-03-01T01:26:38;11.50;93.70
11639;DHT22;5875;35.940;126.892;2023-03-01T01:29:06;11.70;93.90
11639;DHT22;5875;35.940;126.892;2023-03-01T01:31:34;12.00;93.70
11639;DHT22;5875;35.940;126.892;2023-03-01T01:34:03;12.50;95.70
11639;DHT22;5875;35.940;126.892;2023-03-01T01:36:31;12.70;92.70
11639;DHT22;5875;35.940;126.892;2023-03-01T01:38:59;12.80;92.00
11639;DHT22;5875;35.940;126.892;2023-03-01T01:41:28;13.20;90.70
11639;DHT22;5875;35.940;126.892;2023-03-01T01:44:18;13.50;87.00
11639;DHT22;5875;35.940;126.892;2023-03-01T01:46:50;13.70;76.70
11639;DHT22;5875;35.940;126.892;2023-03-01T01:49:38;13.80;70.10
11639;DHT22;5875;35.940;126.892;2023-03-01T01:52:13;13.90;67.10
11639;DHT22;5875;35.940;126.892;2023-03-01T01:54:57;14.10;64.70
11639;DHT22;5875;35.940;126.892;2023-03-01T01:57:39;14.40;62.90
11639;DHT22;5875;35.940;126.892;2023-03-01T02:00:22;15.20;66.00
11639;DHT22;5875;35.940;126.892;2023-03-01T02:02:52;16.00;63.50
11639;DHT22;5875;35.940;126.892;2023-03-01T02:05:33;16.80;58.70
11639;DHT22;5875;35.940;126.892;2023-03-01T02:08:01;17.50;55.60
11639;DHT22;5875;35.940;126.892;2023-03-01T02:10:29;18.10;48.10
11639;DHT22;5875;35.940;126.892;2023-03-01T02:13:00;18.70;45.70
11639;DHT22;5875;35.940;126.892;2023-03-01T02:15:33;19.10;39.80
11639;DHT22;5875;35.940;126.892;2023-03-01T02:18:02;19.20;34.60
11639;DHT22;5875;35.940;126.892;2023-03-01T02:23:25;18.80;25.60
11639;DHT22;5875;35.940;126.892;2023-03-01T02:25:56;18.60;25.30
11639;DHT22;5875;35.940;126.892;2023-03-01T02:28:32;18.50;23.70
11639;DHT22;5875;35.940;126.892;2023-03-01T02:31:00;18.60;24.90
11639;DHT22;5875;35.940;126.892;2023-03-01T02:36:19;18.70;24.40
11639;DHT22;5875;35.940;126.892;2023-03-01T02:38:48;18.80;20.10
11639;DHT22;5875;35.940;126.892;2023-03-01T02:41:17;19.00;22.60
11639;DHT22;5875;35.940;126.892;2023-03-01T02:43:46;19.30;23.30
11639;DHT22;5875;35.940;126.892;2023-03-01T02:46:23;19.80;23.70
11639;DHT22;5875;35.940;126.892;2023-03-01T02:48:53;20.10;17.80
11639;DHT22;5875;35.940;126.892;2023-03-01T02:56:40;21.20;16.80
11639;DHT22;5875;35.940;126.892;2023-03-01T02:59:08;21.20;13.70
11639;DHT22;5875;35.940;126.892;2023-03-01T03:01:35;21.00;13.50
11639;DHT22;5875;35.940;126.892;2023-03-01T03:04:12;21.10;14.40
11639;DHT22;5875;35.940;126.892;2023-03-01T03:06:44;21.10;9.90
11639;DHT22;5875;35.940;126.892;2023-03-01T03:09:13;21.30;10.50
11639;DHT22;5875;35.940;126.892;2023-03-01T03:11:41;20.90;10.40
11639;DHT22;5875;35.940;126.892;2023-03-01T03:14:10;20.80;7.70
11639;DHT22;5875;35.940;126.892;2023-03-01T03:16:43;20.60;6.90
11639;DHT22;5875;35.940;126.892;2023-03-01T03:19:11;20.50;10.10
11639;DHT22;5875;35.940;126.892;2023-03-01T03:21:39;20.40;10.70
11639;DHT22;5875;35.940;126.892;2023-03-01T03:24:06;20.30;9.10
11639;DHT22;5875;35.940;126.892;2023-03-01T03:26:33;20.30;10.20
11639;DHT22;5875;35.940;126.892;2023-03-01T03:29:01;20.50;10.50
11639;DHT22;5875;35.940;126.892;2023-03-01T03:31:28;20.50;7.50
11639;DHT22;5875;35.940;126.892;2023-03-01T03:33:55;20.50;9.50
11639;DHT22;5875;35.940;126.892;2023-03-01T03:36:24;20.70;9.30
11639;DHT22;5875;35.940;126.892;2023-03-01T03:38:51;20.80;8.70
11639;DHT22;5875;35.940;126.892;2023-03-01T03:41:18;20.90;8.30
11639;DHT22;5875;35.940;126.892;2023-03-01T03:43:46;21.00;8.50
11639;DHT22;5875;35.940;126.892;2023-03-01T03:46:13;20.90;3.20
11639;DHT22;5875;35.940;126.892;2023-03-01T03:48:43;20.90;6.70
11639;DHT22;5875;35.940;126.892;2023-03-01T03:51:15;20.90;6.70
11639;DHT22;5875;35.940;126.892;2023-03-01T03:53:43;20.80;6.30
11639;DHT22;5875;35.940;126.892;2023-03-01T03:56:11;20.80;6.50
11639;DHT22;5875;35.940;126.892;2023-03-01T03:58:39;20.80;6.50
11639;DHT22;5875;35.940;126.892;2023-03-01T04:01:06;20.90;5.90
11639;DHT22;5875;35.940;126.892;2023-03-01T04:03:33;20.90;3.50
11639;DHT22;5875;35.940;126.892;2023-03-01T04:06:01;20.80;3.10
11639;DHT22;5875;35.940;126.892;2023-03-01T04:08:29;20.70;3.90
11639;DHT22;5875;35.940;126.892;2023-03-01T04:11:01;20.40;4.70
11639;DHT22;5875;35.940;126.892;2023-03-01T04:13:49;20.10;4.30
11639;DHT22;5875;35.940;126.892;2023-03-01T04:16:17;20.00;5.70
11639;DHT22;5875;35.940;126.892;2023-03-01T04:18:44;19.90;5.20
11639;DHT22;5875;35.940;126.892;2023-03-01T04:21:12;19.90;4.90
11639;DHT22;5875;35.940;126.892;2023-03-01T04:23:39;19.80;4.00
11639;DHT22;5875;35.940;126.892;2023-03-01T04:26:07;19.80;4.70
11639;DHT22;5875;35.940;126.892;2023-03-01T04:28:37;19.70;3.40
11639;DHT22;5875;35.940;126.892;2023-03-01T04:31:11;19.90;4.80
11639;DHT22;5875;35.940;126.892;2023-03-01T04:33:46;19.90;4.70
11639;DHT22;5875;35.940;126.892;2023-03-01T04:36:14;20.00;4.30
11639;DHT22;5875;35.940;126.892;2023-03-01T04:38:42;20.00;4.60
11639;DHT22;5875;35.940;126.892;2023-03-01T04:41:15;20.00;4.30
11639;DHT22;5875;35.940;126.892;2023-03-01T04:43:43;20.00;3.90
11639;DHT22;5875;35.940;126.892;2023-03-01T04:46:14;19.90;3.30
11639;DHT22;5875;35.940;126.892;2023-03-01T04:48:43;19.80;2.90
11639;DHT22;5875;35.940;126.892;2023-03-01T04:51:11;19.70;2.90
11639;DHT22;5875;35.940;126.892;2023-03-01T04:53:43;19.80;3.40
11639;DHT22;5875;35.940;126.892;2023-03-01T04:56:10;19.70;3.30
11639;DHT22;5875;35.940;126.892;2023-03-01T04:58:38;19.50;3.20
11639;DHT22;5875;35.940;126.892;2023-03-01T05:01:12;19.50;3.50
11639;DHT22;5875;35.940;126.892;2023-03-01T05:03:50;19.50;3.60
11639;DHT22;5875;35.940;126.892;2023-03-01T05:06:18;19.50;3.90
11639;DHT22;5875;35.940;126.892;2023-03-01T05:08:46;19.50;3.70
11639;DHT22;5875;35.940;126.892;2023-03-01T05:11:13;19.50;3.30
11639;DHT22;5875;35.940;126.892;2023-03-01T05:13:41;19.50;3.20
11639;DHT22;5875;35.940;126.892;2023-03-01T05:16:09;19.40;2.80
11639;DHT22;5875;35.940;126.892;2023-03-01T05:18:38;19.20;2.90
11639;DHT22;5875;35.940;126.892;2023-03-01T05:21:11;19.10;2.80
11639;DHT22;5875;35.940;126.892;2023-03-01T05:23:39;19.10;3.40
11639;DHT22;5875;35.940;126.892;2023-03-01T05:26:07;19.10;3.60
11639;DHT22;5875;35.940;126.892;2023-03-01T05:28:35;19.00;3.60
11639;DHT22;5875;35.940;126.892;2023-03-01T05:31:04;19.00;3.50
11639;DHT22;5875;35.940;126.892;2023-03-01T05:33:41;18.80;3.00
11639;DHT22;5875;35.940;126.892;2023-03-01T05:36:10;18.80;3.40
11639;DHT22;5875;35.940;126.892;2023-03-01T05:38:37;18.70;3.00
11639;DHT22;5875;35.940;126.892;2023-03-01T05:41:04;18.80;3.00
11639;DHT22;5875;35.940;126.892;2023-03-01T05:43:32;18.80;2.90
11639;DHT22;5875;35.940;126.892;2023-03-01T05:46:02;18.70;3.00
11639;DHT22;5875;35.940;126.892;2023-03-01T05:48:29;18.70;3.20
11639;DHT22;5875;35.940;126.892;2023-03-01T05:50:59;18.70;3.30
11639;DHT22;5875;35.940;126.892;2023-03-01T05:53:27;18.60;3.50
11639;DHT22;5875;35.940;126.892;2023-03-01T05:55:54;18.60;3.60
11639;DHT22;5875;35.940;126.892;2023-03-01T05:58:21;18.50;3.30
11639;DHT22;5875;35.940;126.892;2023-03-01T07:19:28;18.40;3.20
11639;DHT22;5875;35.940;126.892;2023-03-01T07:24:23;16.20;8.00
11639;DHT22;5875;35.940;126.892;2023-03-01T07:26:51;16.10;8.10
11639;DHT22;5875;35.940;126.892;2023-03-01T07:29:19;16.00;7.80
11639;DHT22;5875;35.940;126.892;2023-03-01T07:31:47;15.90;8.80
11639;DHT22;5875;35.940;126.892;2023-03-01T07:34:14;15.90;8.80
11639;DHT22;5875;35.940;126.892;2023-03-01T07:36:41;15.90;8.80
11639;DHT22;5875;35.940;126.892;2023-03-01T07:39:10;15.90;8.80
11639;DHT22;5875;35.940;126.892;2023-03-01T07:41:38;15.80;8.10
11639;DHT22;5875;35.940;126.892;2023-03-01T07:44:06;15.80;9.10
11639;DHT22;5875;35.940;126.892;2023-03-01T07:46:33;15.80;9.60
11639;DHT22;5875;35.940;126.892;2023-03-01T07:49:00;15.80;9.90
11639;DHT22;5875;35.940;126.892;2023-03-01T07:51:27;15.70;9.80
11639;DHT22;5875;35.940;126.892;2023-03-01T07:53:55;15.70;10.10
11639;DHT22;5875;35.940;126.892;2023-03-01T07:56:23;15.60;9.60
11639;DHT22;5875;35.940;126.892;2023-03-01T07:58:50;15.60;9.80
11639;DHT22;5875;35.940;126.892;2023-03-01T08:01:19;15.50;9.80
11639;DHT22;5875;35.940;126.892;2023-03-01T08:03:47;15.50;10.10
11639;DHT22;5875;35.940;126.892;2023-03-01T08:06:16;15.40;10.10
11639;DHT22;5875;35.940;126.892;2023-03-01T08:08:44;15.30;10.10
11639;DHT22;5875;35.940;126.892;2023-03-01T08:11:13;15.30;9.90
11639;DHT22;5875;35.940;126.892;2023-03-01T08:13:41;15.20;10.00
11639;DHT22;5875;35.940;126.892;2023-03-01T08:16:11;15.10;9.90
11639;DHT22;5875;35.940;126.892;2023-03-01T08:18:39;15.00;10.10
11639;DHT22;5875;35.940;126.892;2023-03-01T08:21:11;15.00;10.10
11639;DHT22;5875;35.940;126.892;2023-03-01T08:23:42;14.80;10.20
11639;DHT22;5875;35.940;126.892;2023-03-01T08:26:15;14.70;10.20
11639;DHT22;5875;35.940;126.892;2023-03-01T08:28:43;14.60;10.20
11639;DHT22;5875;35.940;126.892;2023-03-01T08:31:16;14.50;10.60
11639;DHT22;5875;35.940;126.892;2023-03-01T08:33:44;14.40;10.80
11639;DHT22;5875;35.940;126.892;2023-03-01T08:36:17;14.30;11.20
11639;DHT22;5875;35.940;126.892;2023-03-01T08:38:45;14.20;10.50
11639;DHT22;5875;35.940;126.892;2023-03-01T08:41:12;14.10;11.60
11639;DHT22;5875;35.940;126.892;2023-03-01T08:43:39;14.00;11.70
11639;DHT22;5875;35.940;126.892;2023-03-01T08:46:06;13.90;12.20
11639;DHT22;5875;35.940;126.892;2023-03-01T08:48:33;13.80;12.20
11639;DHT22;5875;35.940;126.892;2023-03-01T08:51:12;13.70;12.60
11639;DHT22;5875;35.940;126.892;2023-03-01T08:53:40;13.60;12.90
11639;DHT22;5875;35.940;126.892;2023-03-01T08:56:07;13.50;12.90
11639;DHT22;5875;35.940;126.892;2023-03-01T08:58:35;13.30;13.20
11639;DHT22;5875;35.940;126.892;2023-03-01T09:01:08;13.20;13.50
11639;DHT22;5875;35.940;126.892;2023-03-01T09:03:36;13.10;13.70
11639;DHT22;5875;35.940;126.892;2023-03-01T09:06:05;13.00;14.00
11639;DHT22;5875;35.940;126.892;2023-03-01T09:08:45;13.00;14.20
11639;DHT22;5875;35.940;126.892;2023-03-01T09:11:16;12.80;14.60
11639;DHT22;5875;35.940;126.892;2023-03-01T09:13:44;12.70;14.60
11639;DHT22;5875;35.940;126.892;2023-03-01T09:16:13;12.60;14.80
11639;DHT22;5875;35.940;126.892;2023-03-01T09:18:41;12.60;15.10
11639;DHT22;5875;35.940;126.892;2023-03-01T09:21:13;12.50;15.20
11639;DHT22;5875;35.940;126.892;2023-03-01T09:23:43;12.30;15.30
11639;DHT22;5875;35.940;126.892;2023-03-01T09:26:18;12.30;15.80
11639;DHT22;5875;35.940;126.892;2023-03-01T09:28:47;12.20;15.90
11639;DHT22;5875;35.940;126.892;2023-03-01T09:31:16;12.10;16.00
11639;DHT22;5875;35.940;126.892;2023-03-01T09:33:47;12.00;16.30
11639;DHT22;5875;35.940;126.892;2023-03-01T09:36:17;11.90;16.50
11639;DHT22;5875;35.940;126.892;2023-03-01T09:38:45;11.80;16.70
11639;DHT22;5875;35.940;126.892;2023-03-01T09:43:58;11.70;17.00
11639;DHT22;5875;35.940;126.892;2023-03-01T09:46:27;11.60;17.20
11639;DHT22;5875;35.940;126.892;2023-03-01T09:49:02;11.50;17.80
11639;DHT22;5875;35.940;126.892;2023-03-01T09:51:34;11.50;17.50
11639;DHT22;5875;35.940;126.892;2023-03-01T09:54:03;11.40;17.60
11639;DHT22;5875;35.940;126.892;2023-03-01T09:56:41;11.30;17.80
11639;DHT22;5875;35.940;126.892;2023-03-01T09:59:23;11.20;17.90
11639;DHT22;5875;35.940;126.892;2023-03-01T10:04:55;11.00;18.00
11639;DHT22;5875;35.940;126.892;2023-03-01T10:07:32;11.00;18.20
11639;DHT22;5875;35.940;126.892;2023-03-01T10:10:00;10.90;18.20
11639;DHT22;5875;35.940;126.892;2023-03-01T10:12:39;10.80;18.10
11639;DHT22;5875;35.940;126.892;2023-03-01T10:15:34;10.70;18.60
11639;DHT22;5875;35.940;126.892;2023-03-01T10:18:12;10.60;18.30
11639;DHT22;5875;35.940;126.892;2023-03-01T10:23:22;10.50;18.10
11639;DHT22;5875;35.940;126.892;2023-03-01T10:30:59;10.30;18.00
11639;DHT22;5875;35.940;126.892;2023-03-01T10:33:35;10.30;17.80
11639;DHT22;5875;35.940;126.892;2023-03-01T10:36:04;10.20;17.90
11639;DHT22;5875;35.940;126.892;2023-03-01T10:38:46;10.10;17.80
11639;DHT22;5875;35.940;126.892;2023-03-01T10:41:14;10.00;17.80
11639;DHT22;5875;35.940;126.892;2023-03-01T10:43:50;9.90;17.70
11639;DHT22;5875;35.940;126.892;2023-03-01T10:46:27;9.90;17.60
11639;DHT22;5875;35.940;126.892;2023-03-01T10:49:14;9.80;17.60
11639;DHT22;5875;35.940;126.892;2023-03-01T10:51:44;9.70;17.90
11639;DHT22;5875;35.940;126.892;2023-03-01T10:54:28;9.60;17.70
11639;DHT22;5875;35.940;126.892;2023-03-01T10:57:01;9.60;17.60
11639;DHT22;5875;35.940;126.892;2023-03-01T10:59:35;9.50;17.90
11639;DHT22;5875;35.940;126.892;2023-03-01T11:02:49;9.50;18.10
11639;DHT22;5875;35.940;126.892;2023-03-01T11:05:33;9.40;18.00
11639;DHT22;5875;35.940;126.892;2023-03-01T11:08:01;9.40;18.10
11639;DHT22;5875;35.940;126.892;2023-03-01T11:10:34;9.30;18.20
11639;DHT22;5875;35.940;126.892;2023-03-01T11:13:18;9.20;18.30
11639;DHT22;5875;35.940;126.892;2023-03-01T11:16:07;9.10;18.20
11639;DHT22;5875;35.940;126.892;2023-03-01T11:18:36;9.10;18.10
11639;DHT22;5875;35.940;126.892;2023-03-01T11:21:04;9.00;18.60
11639;DHT22;5875;35.940;126.892;2023-03-01T11:23:33;8.90;18.40
11639;DHT22;5875;35.940;126.892;2023-03-01T11:26:05;8.90;18.00
11639;DHT22;5875;35.940;126.892;2023-03-01T11:28:39;8.80;18.50
11639;DHT22;5875;35.940;126.892;2023-03-01T11:31:09;8.70;18.40
11639;DHT22;5875;35.940;126.892;2023-03-01T11:33:48;8.70;18.10
11639;DHT22;5875;35.940;126.892;2023-03-01T11:36:39;8.70;18.20
11639;DHT22;5875;35.940;126.892;2023-03-01T11:39:39;8.60;18.80
11639;DHT22;5875;35.940;126.892;2023-03-01T11:51:24;8.40;18.70
11639;DHT22;5875;35.940;126.892;2023-03-01T11:57:16;8.40;19.00
11639;DHT22;5875;35.940;126.892;2023-03-01T12:05:46;8.20;18.70
11639;DHT22;5875;35.940;126.892;2023-03-01T12:08:33;8.20;18.30
11639;DHT22;5875;35.940;126.892;2023-03-01T12:11:23;8.10;18.30
11639;DHT22;5875;35.940;126.892;2023-03-01T12:22:53;8.00;18.20
11639;DHT22;5875;35.940;126.892;2023-03-01T12:25:45;7.90;17.60
11639;DHT22;5875;35.940;126.892;2023-03-01T12:28:37;7.80;17.00
11639;DHT22;5875;35.940;126.892;2023-03-01T12:42:43;7.50;16.70
11639;DHT22;5875;35.940;126.892;2023-03-01T12:50:59;7.30;16.80
11639;DHT22;5875;35.940;126.892;2023-03-01T12:56:06;7.20;16.90
11639;DHT22;5875;35.940;126.892;2023-03-01T12:58:39;7.20;16.20
11639;DHT22;5875;35.940;126.892;2023-03-01T13:09:27;7.10;18.00
11639;DHT22;5875;35.940;126.892;2023-03-01T13:11:57;7.10;17.60
11639;DHT22;5875;35.940;126.892;2023-03-01T13:16:54;7.00;16.50
11639;DHT22;5875;35.940;126.892;2023-03-01T13:19:27;7.00;17.60
11639;DHT22;5875;35.940;126.892;2023-03-01T13:21:59;6.90;17.40
11639;DHT22;5875;35.940;126.892;2023-03-01T13:24:44;6.90;16.60
11639;DHT22;5875;35.940;126.892;2023-03-01T13:29:58;6.80;16.30
11639;DHT22;5875;35.940;126.892;2023-03-01T13:32:36;6.80;16.30
11639;DHT22;5875;35.940;126.892;2023-03-01T13:37:45;6.70;15.30
11639;DHT22;5875;35.940;126.892;2023-03-01T13:42:47;6.60;14.90
11639;DHT22;5875;35.940;126.892;2023-03-01T13:45:25;6.60;15.40
11639;DHT22;5875;35.940;126.892;2023-03-01T13:48:03;6.50;15.70
11639;DHT22;5875;35.940;126.892;2023-03-01T13:50:43;6.50;15.30
11639;DHT22;5875;35.940;126.892;2023-03-01T13:53:18;6.50;15.20
11639;DHT22;5875;35.940;126.892;2023-03-01T13:55:52;6.50;15.20
11639;DHT22;5875;35.940;126.892;2023-03-01T13:58:30;6.50;16.20
11639;DHT22;5875;35.940;126.892;2023-03-01T14:01:06;6.40;16.80
11639;DHT22;5875;35.940;126.892;2023-03-01T14:03:41;6.40;16.80
11639;DHT22;5875;35.940;126.892;2023-03-01T14:06:17;6.40;17.30
11639;DHT22;5875;35.940;126.892;2023-03-01T14:08:48;6.40;16.80
11639;DHT22;5875;35.940;126.892;2023-03-01T14:14:17;6.50;17.40
11639;DHT22;5875;35.940;126.892;2023-03-01T14:20:08;6.50;16.20
11639;DHT22;5875;35.940;126.892;2023-03-01T14:22:36;6.40;15.60
11639;DHT22;5875;35.940;126.892;2023-03-01T14:25:36;6.40;16.00
11639;DHT22;5875;35.940;126.892;2023-03-01T14:30:52;6.40;15.60
11639;DHT22;5875;35.940;126.892;2023-03-01T14:33:40;6.40;15.30
11639;DHT22;5875;35.940;126.892;2023-03-01T14:36:10;6.40;15.10
11639;DHT22;5875;35.940;126.892;2023-03-01T14:38:47;6.30;15.70
11639;DHT22;5875;35.940;126.892;2023-03-01T14:43:50;6.30;14.20
11639;DHT22;5875;35.940;126.892;2023-03-01T14:46:26;6.30;12.80
11639;DHT22;5875;35.940;126.892;2023-03-01T14:49:22;6.20;13.90
11639;DHT22;5875;35.940;126.892;2023-03-01T14:54:41;6.20;12.40
11639;DHT22;5875;35.940;126.892;2023-03-01T14:57:20;6.10;12.00
11639;DHT22;5875;35.940;126.892;2023-03-01T14:59:59;6.10;11.60
11639;DHT22;5875;35.940;126.892;2023-03-01T15:02:31;6.00;10.80
11639;DHT22;5875;35.940;126.892;2023-03-01T15:05:01;5.90;9.60
11639;DHT22;5875;35.940;126.892;2023-03-01T15:07:33;5.90;10.10
11639;DHT22;5875;35.940;126.892;2023-03-01T15:10:04;5.80;10.50
11639;DHT22;5875;35.940;126.892;2023-03-01T15:12:35;5.80;12.00
11639;DHT22;5875;35.940;126.892;2023-03-01T15:15:22;5.80;11.60
11639;DHT22;5875;35.940;126.892;2023-03-01T15:17:53;5.80;11.00
11639;DHT22;5875;35.940;126.892;2023-03-01T15:20:26;5.80;11.20
11639;DHT22;5875;35.940;126.892;2023-03-01T15:22:56;5.80;11.70
11639;DHT22;5875;35.940;126.892;2023-03-01T15:25:27;5.70;10.60
11639;DHT22;5875;35.940;126.892;2023-03-01T15:27:57;5.70;9.80
11639;DHT22;5875;35.940;126.892;2023-03-01T15:33:18;5.70;10.30
11639;DHT22;5875;35.940;126.892;2023-03-01T15:35:49;5.70;12.60
11639;DHT22;5875;35.940;126.892;2023-03-01T15:41:21;5.70;12.90
11639;DHT22;5875;35.940;126.892;2023-03-01T15:43:49;5.70;13.80
11639;DHT22;5875;35.940;126.892;2023-03-01T15:46:36;5.80;13.90
11639;DHT22;5875;35.940;126.892;2023-03-01T15:49:19;5.80;14.30
11639;DHT22;5875;35.940;126.892;2023-03-01T15:51:53;5.80;14.50
11639;DHT22;5875;35.940;126.892;2023-03-01T15:54:24;5.80;14.30
11639;DHT22;5875;35.940;126.892;2023-03-01T15:56:51;5.80;14.30
11639;DHT22;5875;35.940;126.892;2023-03-01T15:59:19;5.80;13.20
11639;DHT22;5875;35.940;126.892;2023-03-01T16:01:48;5.70;14.10
11639;DHT22;5875;35.940;126.892;2023-03-01T16:04:17;5.70;13.50
11639;DHT22;5875;35.940;126.892;2023-03-01T16:06:50;5.70;13.20
11639;DHT22;5875;35.940;126.892;2023-03-01T16:09:25;5.60;12.70
11639;DHT22;5875;35.940;126.892;2023-03-01T16:11:54;5.60;13.30
11639;DHT22;5875;35.940;126.892;2023-03-01T16:14:22;5.60;12.90
11639;DHT22;5875;35.940;126.892;2023-03-01T16:16:49;5.60;14.60
11639;DHT22;5875;35.940;126.892;2023-03-01T16:19:16;5.60;15.40
11639;DHT22;5875;35.940;126.892;2023-03-01T16:21:44;5.60;14.90
11639;DHT22;5875;35.940;126.892;2023-03-01T16:24:13;5.60;15.40
11639;DHT22;5875;35.940;126.892;2023-03-01T16:26:40;5.60;16.10
11639;DHT22;5875;35.940;126.892;2023-03-01T16:29:08;5.70;16.20
11639;DHT22;5875;35.940;126.892;2023-03-01T16:31:36;5.70;16.30
11639;DHT22;5875;35.940;126.892;2023-03-01T16:34:03;5.70;16.80
11639;DHT22;5875;35.940;126.892;2023-03-01T16:36:30;5.70;17.00
11639;DHT22;5875;35.940;126.892;2023-03-01T16:39:00;5.70;17.00
11639;DHT22;5875;35.940;126.892;2023-03-01T16:41:28;5.70;17.10
11639;DHT22;5875;35.940;126.892;2023-03-01T16:43:56;5.80;17.30
11639;DHT22;5875;35.940;126.892;2023-03-01T16:46:28;5.80;17.50
11639;DHT22;5875;35.940;126.892;2023-03-01T16:48:56;5.80;17.60
11639;DHT22;5875;35.940;126.892;2023-03-01T16:51:23;5.80;17.60
11639;DHT22;5875;35.940;126.892;2023-03-01T16:53:51;5.80;17.70
11639;DHT22;5875;35.940;126.892;2023-03-01T16:56:19;5.80;17.70
11639;DHT22;5875;35.940;126.892;2023-03-01T16:58:46;5.70;17.70
11639;DHT22;5875;35.940;126.892;2023-03-01T17:01:19;5.70;18.00
11639;DHT22;5875;35.940;126.892;2023-03-01T17:03:47;5.70;18.40
11639;DHT22;5875;35.940;126.892;2023-03-01T17:06:20;5.70;18.40
11639;DHT22;5875;35.940;126.892;2023-03-01T17:08:48;5.80;18.60
11639;DHT22;5875;35.940;126.892;2023-03-01T17:11:17;5.80;18.60
11639;DHT22;5875;35.940;126.892;2023-03-01T17:13:45;5.70;18.80
11639;DHT22;5875;35.940;126.892;2023-03-01T17:16:15;5.70;18.90
11639;DHT22;5875;35.940;126.892;2023-03-01T17:18:43;5.70;18.90
11639;DHT22;5875;35.940;126.892;2023-03-01T17:21:10;5.70;19.00
11639;DHT22;5875;35.940;126.892;2023-03-01T17:23:41;5.70;19.10
11639;DHT22;5875;35.940;126.892;2023-03-01T17:26:09;5.70;19.10
11639;DHT22;5875;35.940;126.892;2023-03-01T17:28:37;5.70;19.40
11639;DHT22;5875;35.940;126.892;2023-03-01T17:31:06;5.70;19.40
11639;DHT22;5875;35.940;126.892;2023-03-01T17:33:33;5.70;19.30
11639;DHT22;5875;35.940;126.892;2023-03-01T17:36:01;5.70;19.60
11639;DHT22;5875;35.940;126.892;2023-03-01T17:38:28;5.80;19.60
11639;DHT22;5875;35.940;126.892;2023-03-01T17:40:57;5.80;19.60
11639;DHT22;5875;35.940;126.892;2023-03-01T17:43:24;5.80;19.10
11639;DHT22;5875;35.940;126.892;2023-03-01T17:45:51;5.80;19.50
11639;DHT22;5875;35.940;126.892;2023-03-01T17:48:19;5.80;19.40
11639;DHT22;5875;35.940;126.892;2023-03-01T17:50:47;5.80;19.40
11639;DHT22;5875;35.940;126.892;2023-03-01T17:53:14;5.70;19.00
11639;DHT22;5875;35.940;126.892;2023-03-01T17:55:43;5.70;19.00
11639;DHT22;5875;35.940;126.892;2023-03-01T17:58:12;5.70;19.00
11639;DHT22;5875;35.940;126.892;2023-03-01T18:00:40;5.70;19.00
11639;DHT22;5875;35.940;126.892;2023-03-01T18:03:07;5.70;18.70
11639;DHT22;5875;35.940;126.892;2023-03-01T18:05:35;5.70;18.80
11639;DHT22;5875;35.940;126.892;2023-03-01T18:08:06;5.70;18.80
11639;DHT22;5875;35.940;126.892;2023-03-01T18:10:33;5.70;18.90
11639;DHT22;5875;35.940;126.892;2023-03-01T18:13:03;5.70;18.80
11639;DHT22;5875;35.940;126.892;2023-03-01T18:15:32;5.70;18.80
11639;DHT22;5875;35.940;126.892;2023-03-01T18:17:59;5.70;19.00
11639;DHT22;5875;35.940;126.892;2023-03-01T18:20:26;5.70;19.20
11639;DHT22;5875;35.940;126.892;2023-03-01T18:22:53;5.70;19.00
11639;DHT22;5875;35.940;126.892;2023-03-01T18:25:20;5.70;19.30
11639;DHT22;5875;35.940;126.892;2023-03-01T18:27:48;5.70;19.40
11639;DHT22;5875;35.940;126.892;2023-03-01T18:30:15;5.70;19.50
11639;DHT22;5875;35.940;126.892;2023-03-01T18:32:42;5.60;19.60
11639;DHT22;5875;35.940;126.892;2023-03-01T18:35:10;5.60;19.40
11639;DHT22;5875;35.940;126.892;2023-03-01T18:37:37;5.60;19.90
11639;DHT22;5875;35.940;126.892;2023-03-01T18:40:05;5.60;20.30
11639;DHT22;5875;35.940;126.892;2023-03-01T18:42:33;5.50;19.10
11639;DHT22;5875;35.940;126.892;2023-03-01T18:45:00;5.50;18.90
11639;DHT22;5875;35.940;126.892;2023-03-01T18:47:27;5.50;20.20
11639;DHT22;5875;35.940;126.892;2023-03-01T18:49:54;5.50;20.70
11639;DHT22;5875;35.940;126.892;2023-03-01T18:52:21;5.50;20.80
11639;DHT22;5875;35.940;126.892;2023-03-01T18:54:49;5.50;20.30
11639;DHT22;5875;35.940;126.892;2023-03-01T18:57:16;5.50;20.00
11639;DHT22;5875;35.940;126.892;2023-03-01T18:59:43;5.40;12.60
11639;DHT22;5875;35.940;126.892;2023-03-01T19:02:11;5.40;19.20
11639;DHT22;5875;35.940;126.892;2023-03-01T19:04:43;5.30;18.30